首页
METAR-TAF:

METAR-TAF

机场 :

藻德济, 马约特

纬度: 12-48S, 经度: 045-17E, 海拔: 8米

当前天气观测

该预报发布于17分钟前的08:00 UTC
风速12节,风向
温度 30°C
湿度 66%
气压 1014 hPa
能见度10公里或以上
散云层高于2400英尺
多云层高于3000英尺
多云层高于8400英尺

METAR: FMCZ 160800Z AUTO 18012KT 9999 SCT024 BKN030 BKN084 30/23 Q1014 NOSIG

时间: 11:17 (08:17 UTC)

预报

该预报发布于3小时和17分钟前的05:00 UTC
预报有效从16日的 06点(UTC)到 17日的 06点(UTC)
风速12节,风向
能见度10公里或以上
少量云层高于2200英尺
散云层高于10000英尺

TAF: FMCZ 160500Z 1606/1706 19012KT 9999 FEW022 SCT100

超过4000个机场的气象观测和天气预报(METAR&TAF报告)。

可查询的气象台以黄色和红色小点在地图上表示。

将鼠标移到小点上方,可查看气象台名称。

然后点击查看天气观测和预报。

如需切换地图:点击带黑十字的绿色按钮放大地图;点击带横线的绿色按钮缩小地图;或者点击绿色箭头查看邻近地区的地图。


METAR-TAF: